Weather observations for the past three days for
Grangeville - Idaho County Airport
Metric (Imperial)
Date Time (pdt) Wind (kph) Vis. (km) Weather Sky Cond. Temperature (ºC) Relative Humidity Wind Chill (°C) Heat Index (°C) Pressure Precipitation (cm)
Air Dwpt 6 hour altimeter (cm) sea level (mb) 1 hr 3 hr 6 hr
Max. Min.
03 22:15 S 11 16.09 Fair CLR 10 2 58% 9 75.87 0.0
03 21:55 S 9 16.09 Fair CLR 9 3 66% 8 75.9 0.0
03 21:35 S 6 16.09 Fair CLR 10 3 62% 75.9 0.0
03 21:15 S 9 16.09 Fair CLR 11 3 58% 75.9 0.0
03 20:55 SW 9 16.09 Fair CLR 11 4 62% 75.9 0.0
03 20:35 SW 6 16.09 Fair CLR 13 5 59% 75.87 0.0
03 20:15 Calm 16.09 Fair CLR 16 5 48% 75.87 0.0
03 19:55 Calm 16.09 Fair CLR 16 5 48% 75.87 0.0
03 19:35 N 6 16.09 Fair CLR 18 5 43% 75.84 0.0
03 19:15 Calm 16.09 Fair CLR 18 6 46% 75.87 0.0
03 18:55 N 7 16.09 Fair CLR 19 7 46% 75.87 0.0
03 18:35 N 11 16.09 Fair CLR 20 6 40% 75.87 0.0
03 18:15 N 13 16.09 Fair CLR 21 5 35% 75.9 0.0
03 17:55 N 15 16.09 Fair CLR 21 5 35% 75.9 0.0
03 17:35 N 19 16.09 Fair CLR 21 5 35% 75.92 0.0
03 17:15 N 13 G 28 16.09 Partly Cloudy SCT080 21 5 35% 75.92 0.0
03 16:55 N 17 16.09 Partly Cloudy SCT080 22 5 33% 75.92 0.0
03 16:35 N 17 16.09 Partly Cloudy SCT080 21 7 40% 75.95 0.0
03 16:15 NE 11 16.09 Mostly Cloudy BKN080 22 6 36% 75.95 0.0
03 15:55 NE 11 16.09 Partly Cloudy SCT080 21 8 43% 75.95 0.0
03 15:35 Calm 16.09 Fair CLR 22 5 33% 75.97 0.0
03 15:15 Calm 16.09 Fair CLR 22 6 36% 75.97 0.0
03 14:55 Calm 16.09 Fair CLR 22 5 33% 76 0.0
03 14:35 N 9 16.09 Fair CLR 22 6 36% 76.02 0.0
03 14:15 Calm 16.09 Fair CLR 22 4 31% 76.02 0.0
03 13:55 Calm 16.09 Fair CLR 22 5 33% 76.07 0.0
03 13:35 E 7 16.09 Fair CLR 21 4 33% 76.07 0.0
03 13:15 Calm 16.09 Fair CLR 21 6 38% 76.1 0.0
03 12:55 E 6 16.09 Fair CLR 21 5 35% 76.1 0.0
03 12:35 Calm 16.09 Fair CLR 21 4 33% 76.12 0.0
03 12:15 Calm 16.09 Fair CLR 21 5 35% 76.15 0.0
03 11:55 E 6 16.09 Fair CLR 20 5 38% 76.15 0.0
03 11:35 NE 7 16.09 Fair CLR 20 7 43% 76.17 0.0
03 11:15 NE 6 16.09 Fair CLR 19 5 40% 76.17 0.0
03 10:55 Calm 16.09 Fair CLR 18 8 52% 76.2 0.0
03 10:35 Calm 16.09 Fair CLR 17 7 52% 76.2 0.0
03 10:15 Calm 16.09 Fair CLR 17 6 49% 76.2 0.0
03 09:55 Calm 16.09 Fair CLR 16 7 55% 76.2 0.0
03 09:35 NE 6 16.09 Fair CLR 15 7 59% 76.2 0.0
03 09:15 NE 7 16.09 Fair CLR 15 7 59% 76.2 0.0
03 08:55 NE 7 16.09 Fair CLR 14 7 63% 76.2 0.0
03 08:35 NE 6 16.09 Fair CLR 13 6 63% 76.2 0.0
03 08:15 NE 6 16.09 Fair CLR 13 6 63% 76.2 0.0
03 07:55 NE 9 16.09 Fair CLR 12 6 67% 76.2 0.0
03 07:35 Calm 16.09 Fair CLR 12 5 63% 76.2 0.0
03 07:15 Calm 16.09 Fair CLR 11 5 67% 76.2 0.0
03 06:55 Calm 16.09 Fair CLR 11 5 67% 76.2 0.0
03 06:35 E 6 16.09 Fair CLR 10 3 62% 76.2 0.0
03 06:15 SE 6 16.09 Fair CLR 9 2 62% 76.2 0.0
03 05:55 E 6 16.09 Fair CLR 7 2 71% 76.2 0.0
03 05:35 Calm 16.09 Fair CLR 5 2 81% 76.2 0.0
03 05:15 Calm 16.09 Fair CLR 5 2 81% 76.17 0.0
03 04:55 Calm 16.09 Fair CLR 6 2 76% 76.17 0.0
03 04:35 Calm 16.09 Fair CLR 5 2 81% 76.2 0.0
03 04:15 Calm 16.09 Fair CLR 6 2 76% 76.2 0.0
03 03:35 E 6 16.09 Fair CLR 7 2 71% 76.23 0.0
03 03:15 Calm 16.09 Fair CLR 7 3 76% 76.2 0.0
03 02:55 Calm 16.09 Fair CLR 7 3 76% 76.2 0.0
03 02:35 Calm 16.09 Fair CLR 8 3 71% 76.17 0.0
03 02:15 Calm 16.09 Fair CLR 8 3 71% 76.17 0.0
03 01:55 SW 6 16.09 Fair CLR 8 3 71% 76.17 0.0
03 01:35 S 9 16.09 Fair CLR 8 3 71% 7 76.17 0.0
03 01:15 S 9 16.09 Fair CLR 9 3 66% 8 76.2 0.0
03 00:55 S 9 16.09 Fair CLR 8 3 71% 7 76.17 0.0
03 00:35 SW 9 16.09 Fair CLR 8 3 71% 7 76.17 0.0
03 00:15 S 6 16.09 Fair CLR 10 3 62% 76.17 0.0
02 23:55 S 7 16.09 Fair CLR 8 3 71% 7 76.17 0.0
02 23:35 S 7 16.09 Fair CLR 10 3 62% 9 76.17 0.0
02 23:15 S 6 16.09 Fair CLR 11 3 58% 76.17 0.0
02 22:55 S 9 16.09 Fair CLR 10 3 62% 9 76.17 0.0
02 22:35 Calm 16.09 Fair CLR 11 2 54% 76.2 0.0
02 22:15 Calm 16.09 Fair CLR 10 3 62% 76.2 0.0
02 21:55 SE 7 16.09 Fair CLR 11 2 54% 76.17 0.0
02 21:35 Calm 16.09 Fair CLR 11 3 58% 76.17 0.0
02 21:15 Calm 16.09 Fair CLR 11 3 58% 76.17 0.0
02 20:55 S 7 16.09 Fair CLR 10 4 67% 9 76.15 0.0
02 20:35 S 7 16.09 Fair CLR 12 3 54% 76.12 0.0
02 20:15 S 6 16.09 Fair CLR 12 5 63% 76.12 0.0
02 19:55 S 6 16.09 Fair CLR 14 4 51% 76.12 0.0
02 19:35 Calm 16.09 Fair CLR 17 3 39% 76.1 0.0
02 19:15 Calm 16.09 Fair CLR 19 2 32% 76.1 0.0
02 18:55 Calm 16.09 Fair CLR 20 4 35% 76.12 0.0
02 18:35 Calm 16.09 Fair CLR 19 5 40% 76.12 0.0
02 18:15 Calm 16.09 Fair CLR 20 6 40% 76.12 0.0
02 17:55 N 7 16.09 Fair CLR 20 1 28% 76.12 0.0
02 17:35 N 9 16.09 Fair CLR 21 1 27% 76.12 0.0
02 17:15 N 9 16.09 Fair CLR 21 3 31% 76.12 0.0
02 16:55 N 13 16.09 Fair CLR 21 4 33% 76.12 0.0
02 16:35 N 9 16.09 Fair CLR 22 5 33% 76.12 0.0
02 16:15 N 7 16.09 Fair CLR 22 7 38% 76.12 0.0
02 15:55 N 7 16.09 Fair CLR 22 8 41% 76.15 0.0
02 15:35 NW 9 16.09 Fair CLR 22 7 38% 76.15 0.0
02 15:15 N 6 16.09 Fair CLR 22 5 33% 76.17 0.0
02 14:55 W 9 16.09 Fair CLR 22 2 27% 76.17 0.0
02 14:35 W 6 16.09 Fair CLR 22 3 29% 76.23 0.0
02 14:15 NW 9 16.09 Fair CLR 22 3 29% 76.23 0.0
02 13:55 W 9 16.09 Fair CLR 21 5 35% 76.23 0.0
02 13:35 NE 7 16.09 Fair CLR 20 8 46% 76.25 0.0
02 13:15 NE 7 16.09 Fair CLR 20 8 46% 76.25 0.0
02 12:55 E 6 16.09 Fair CLR 20 9 49% 76.25 0.0
02 12:35 NE 7 16.09 Fair CLR 19 9 52% 76.28 0.0
02 12:15 NE 6 16.09 Fair CLR 18 8 52% 76.3 0.0
02 11:55 E 7 16.09 Fair CLR 18 8 52% 76.3 0.0
02 11:35 E 9 16.09 Fair CLR 18 9 56% 76.3 0.0
02 11:15 NE 9 16.09 Fair CLR 17 8 56% 76.3 0.0
02 10:55 NE 7 16.09 Fair CLR 17 8 56% 76.3 0.0
02 10:35 Calm 16.09 Fair CLR 16 5 48% 76.33 0.0
02 10:15 Calm 16.09 Fair CLR 16 5 48% 76.33 0.0
02 09:55 Calm 16.09 Fair CLR 15 5 51% 76.33 0.0
02 09:35 Calm 16.09 Fair CLR 15 6 55% 76.33 0.0
02 09:15 Calm 16.09 Fair CLR 13 4 55% 76.33 0.0
02 08:55 Calm 16.09 Fair CLR 13 5 59% 76.35 0.0
02 08:35 Calm 16.09 Fair CLR 12 3 54% 76.35 0.0
02 08:15 Calm 16.09 Fair CLR 11 3 58% 76.35 0.0
02 07:55 Calm 16.09 Fair CLR 10 3 62% 76.35 0.0
02 07:35 Calm 16.09 Fair CLR 10 3 62% 76.35 0.0
02 07:15 Calm 16.09 Fair CLR 10 2 58% 76.33 0.0
02 06:55 Calm 16.09 Fair CLR 7 5 87% 76.33 0.0
02 06:35 Calm 16.09 Fair CLR 5 3 87% 76.33 0.0
02 06:15 Calm 16.09 Fair CLR 6 2 76% 76.3 0.0
02 05:55 Calm 16.09 Fair CLR 8 1 62% 76.3 0.0
02 05:35 E 6 16.09 Fair CLR 6 1 71% 76.3 0.0
02 05:15 E 9 16.09 Fair CLR 5 1 76% 3 76.3 0.0
02 04:55 Calm 16.09 Fair CLR 7 1 66% 76.3 0.0
02 04:35 Calm 16.09 Fair CLR 7 1 66% 76.33 0.0
02 04:15 E 6 16.09 Fair CLR 6 2 76% 76.3 0.0
02 03:55 Calm 16.09 Fair CLR 6 1 71% 76.3 0.0
02 03:35 Calm 16.09 Fair CLR 5 1 76% 76.3 0.0
02 03:15 W 6 16.09 Fair CLR 7 2 71% 76.3 0.0
02 02:55 SW 6 16.09 Fair CLR 5 2 81% 76.3 0.0
02 02:35 E 6 16.09 Fair CLR 5 2 81% 76.3 0.0
02 02:15 Calm 16.09 Fair CLR 6 2 76% 76.3 0.0
02 01:55 Calm 16.09 Fair CLR 6 2 76% 76.3 0.0
02 01:35 E 7 16.09 Fair CLR 8 2 66% 7 76.3 0.0
02 01:15 SE 7 16.09 Fair CLR 8 2 66% 7 76.3 0.0
02 00:55 Calm 16.09 Fair CLR 8 2 66% 76.33 0.0
02 00:15 Calm 16.09 Fair CLR 7 2 71% 76.33 0.0
01 23:55 W 6 16.09 Fair CLR 8 3 71% 76.33 0.0
01 23:35 Calm 16.09 Fair CLR 9 2 62% 76.3 0.0
01 23:15 S 7 16.09 Fair CLR 8 3 71% 7 76.3 0.0
01 22:55 Calm 16.09 Fair CLR 8 3 71% 76.3 0.0
01 22:35 Calm 16.09 Fair CLR 8 3 71% 76.3 0.0
01 22:15 Calm 16.09 Fair CLR 8 3 71% 76.3 0.0
01 21:55 Calm 16.09 Fair CLR 9 3 66% 76.3 0.0
01 21:35 Calm 16.09 Fair CLR 10 3 62% 76.3 0.0
01 21:15 Calm 16.09 Fair CLR 11 3 58% 76.3 0.0
01 20:55 S 7 16.09 Fair CLR 12 3 54% 76.3 0.0
01 20:35 SE 7 16.09 Fair CLR 12 4 58% 76.28 0.0
01 20:15 Calm 16.09 Fair CLR 14 4 51% 76.28 0.0
01 19:55 Calm 16.09 Fair CLR 15 5 51% 76.25 0.0
01 19:35 SE 6 16.09 Fair CLR 15 6 55% 76.25 0.0
01 19:15 E 6 16.09 Fair CLR 17 5 45% 76.25 0.0
01 18:55 NE 9 16.09 Fair CLR 16 7 55% 76.25 0.0
01 18:35 NE 9 16.09 Fair CLR 17 6 49% 76.25 0.0
01 18:15 NE 11 16.09 Fair CLR 18 6 46% 76.28 0.0
01 17:55 NE 15 16.09 Fair CLR 20 5 38% 76.28 0.0
01 17:35 N 11 16.09 Fair CLR 20 4 35% 76.28 0.0
01 17:15 NW 11 16.09 Fair CLR 21 1 27% 76.28 0.0
01 16:55 NW 11 16.09 Fair CLR 21 1 27% 76.3 0.0
01 16:15 W 15 16.09 Fair CLR 21 2 29% 76.3 0.0
01 15:55 NW 15 16.09 Fair CLR 21 2 29% 76.33 0.0
01 15:35 NW 15 16.09 Fair CLR 21 2 29% 76.35 0.0
01 15:15 NW 9 16.09 Fair CLR 21 1 27% 76.35 0.0
01 14:55 W 9 16.09 Fair CLR 21 1 27% 76.38 0.0
01 14:35 NW 13 16.09 Fair CLR 21 1 27% 76.38 0.0
01 14:15 W 15 16.09 Fair CLR 21 1 27% 76.4 0.0
01 13:55 NW 13 16.09 Fair CLR 21 1 27% 76.43 0.0
01 13:35 W 13 16.09 Fair CLR 20 1 28% 76.43 0.0
01 13:15 W 13 16.09 Fair CLR 20 2 30% 76.43 0.0
01 12:55 W 7 16.09 Fair CLR 20 0 26% 76.45 0.0
01 12:35 SW 6 16.09 Fair CLR 20 0 26% 76.45 0.0
01 12:15 SW 7 16.09 Fair CLR 19 2 32% 76.48 0.0
01 11:55 NE 11 16.09 Fair CLR 18 6 46% 76.48 0.0
01 11:35 NE 9 16.09 Fair CLR 18 6 46% 76.48 0.0
01 11:15 E 7 16.09 Fair CLR 17 7 52% 76.5 0.0
01 10:55 E 9 16.09 Fair CLR 16 6 52% 76.53 0.0
01 10:35 E 7 16.09 Fair CLR 15 4 48% 76.53 0.0
01 10:15 E 7 16.09 Fair CLR 15 5 51% 76.53 0.0
01 09:30 Calm 16.09 Fair CLR 12 3 54% 76.56 0.0
01 09:15 Calm 16.09 Fair CLR 12 3 54% 76.56 0.0
01 08:55 NE 6 16.09 Fair CLR 12 3 54% 76.56 0.0
01 08:35 NE 6 16.09 Fair CLR 11 2 54% 76.56 0.0
01 08:15 Calm 16.09 Fair CLR 10 1 54% 76.56 0.0
01 07:55 Calm 16.09 Fair CLR 10 1 54% 76.56 0.0
01 07:35 Calm 16.09 Fair CLR 8 2 66% 76.53 0.0
01 07:15 Calm 16.09 Fair CLR 6 2 76% 76.53 0.0
01 06:55 Calm 16.09 Fair CLR 5 2 81% 76.5 0.0
01 06:35 Calm 16.09 Fair CLR 4 1 81% 76.5 0.0
01 06:15 Calm 11.27 Fair CLR 2 0 87% 76.48 0.0
01 05:55 Calm 16.09 Fair CLR 2 0 87% 76.48 0.0
01 05:35 Calm 16.09 Fair CLR 3 0 81% 76.48 0.0
01 05:15 Calm 16.09 Fair CLR 1 -1 87% 76.48 0.0
01 04:55 Calm 16.09 Fair CLR 1 -1 87% 76.48 0.0
01 04:35 Calm 16.09 Fair CLR 2 -1 81% 76.48 0.0
01 04:15 Calm 16.09 Fair CLR 2 0 87% 76.48 0.0
01 03:55 Calm 16.09 Fair CLR 2 -1 81% 76.48 0.0
01 03:35 E 11 16.09 Fair CLR 3 0 81% 0 76.48 0.0
01 03:15 E 13 16.09 Fair CLR 4 0 75% 1 76.48 0.0
01 02:55 E 9 16.09 Fair CLR 5 0 70% 3 76.48 0.0
01 02:35 Calm 16.09 Fair CLR 5 0 70% 76.48 0.0
01 02:15 Calm 16.09 Fair CLR 4 0 75% 76.48 0.0
01 01:55 Calm 16.09 Fair CLR 3 0 81% 76.48 0.0
01 01:35 Calm 16.09 Fair CLR 5 0 70% 76.48 0.0
01 01:15 SW 6 16.09 Fair CLR 5 0 70% 76.48 0.0
01 00:55 Calm 16.09 Fair CLR 6 0 66% 76.48 0.0
01 00:35 Calm 16.09 Fair CLR 5 0 70% 76.48 0.0
01 00:15 S 6 16.09 Fair CLR 4 1 81% 76.48 0.0
30 23:55 Calm 16.09 Fair CLR 5 0 70% 76.48 0.0
30 23:35 S 7 16.09 Fair CLR 5 1 76% 4 76.48 0.0
30 23:15 S 7 16.09 Fair CLR 6 1 71% 5 76.48 0.0
30 22:55 Calm 16.09 Fair CLR 6 1 71% 76.48 0.0
30 22:35 Calm 16.09 Fair CLR 7 1 66% 76.48 0.0
Date Time (pdt) Wind (kph) Vis. (km) Weather Sky Cond. Air Dwpt Max. Min. Relative Humidity Wind Chill (°C) Heat Index (°C) altimeter (cm) sea level (mb) 1 hr 3 hr 6 hr
6 hour
Temperature (ºC) Pressure Precipitation (cm)